Time;durP1;ratioP1;P1;durP2;ratioP2;P2;SDS_P1;SDS_P2;PMS_P1;PMS_P2;Temp;Humidity;BMP_temperature;BMP_pressure;BME280_temperature;BME280_humidity;BME280_pressure;Samples;Min_cycle;Max_cycle;Signal;HPM_P1;HPM_P2
2022/02/08 00:01:21;;;;;;;31.13;5.13;;;;;;;;;;5030598;28;20113;-65
2022/02/08 00:03:47;;;;;;;11.23;4.37;;;;;;;;;;5034431;28;20028;-65
2022/02/08 00:07:01;;;;;;;9.47;4.37;;;;;;;;;;5033317;28;20555;-64
2022/02/08 00:09:00;;;;;;;8.60;4.10;;;;;;;;;;5030485;28;20472;-65
2022/02/08 00:11:26;;;;;;;8.40;4.00;;;;;;;;;;5034328;28;20071;-64
2022/02/08 00:13:52;;;;;;;8.67;4.40;;;;;;;;;;5034427;28;20120;-65
2022/02/08 00:16:18;;;;;;;13.23;4.43;;;;;;;;;;5034453;28;20029;-65
2022/02/08 00:18:44;;;;;;;8.60;4.30;;;;;;;;;;5034612;28;20091;-65
2022/02/08 00:21:10;;;;;;;9.43;4.70;;;;;;;;;;5034140;28;20026;-65
2022/02/08 00:23:36;;;;;;;9.20;4.37;;;;;;;;;;5032964;28;20029;-65
2022/02/08 00:26:03;;;;;;;9.03;4.50;;;;;;;;;;5034025;28;20032;-65
2022/02/08 00:28:29;;;;;;;7.40;4.00;;;;;;;;;;5033952;28;21101;-65
2022/02/08 00:30:55;;;;;;;9.90;3.70;;;;;;;;;;5034255;28;20030;-65
2022/02/08 00:33:21;;;;;;;6.70;3.07;;;;;;;;;;5034312;28;20041;-65
2022/02/08 00:35:47;;;;;;;5.47;2.83;;;;;;;;;;5034011;28;20022;-65
2022/02/08 00:38:13;;;;;;;7.23;3.97;;;;;;;;;;5034005;28;20022;-65
2022/02/08 00:40:40;;;;;;;11.00;5.33;;;;;;;;;;5033713;28;20021;-66
2022/02/08 00:43:08;;;;;;;11.23;6.20;;;;;;;;;;5033836;28;20026;-66
2022/02/08 00:46:00;;;;;;;10.67;5.70;;;;;;;;;;5033867;28;20042;-66
2022/02/08 00:48:37;;;;;;;8.93;5.53;;;;;;;;;;5033069;28;20500;-64
2022/02/08 00:51:03;;;;;;;;;;;;;;;;;;5034126;28;20026;-64
2022/02/08 00:53:29;;;;;;;11.57;5.70;;;;;;;;;;5033744;28;19913;-65
2022/02/08 00:55:56;;;;;;;11.70;5.57;;;;;;;;;;5033598;28;20377;-67
2022/02/08 00:58:22;;;;;;;10.50;5.83;;;;;;;;;;5033325;28;20105;-64
2022/02/08 01:00:48;;;;;;;11.00;4.80;;;;;;;;;;5033229;28;20033;-65
2022/02/08 01:03:16;;;;;;;9.33;5.57;;;;;;;;;;5033409;28;20486;-64
2022/02/08 01:05:47;;;;;;;8.40;4.97;;;;;;;;;;5033451;28;20014;-66
2022/02/08 01:08:13;;;;;;;12.13;5.37;;;;;;;;;;5033363;28;20466;-64
2022/02/08 01:10:40;;;;;;;14.70;6.53;;;;;;;;;;5033203;28;20041;-65
2022/02/08 01:13:08;;;;;;;10.33;5.77;;;;;;;;;;5033440;28;20120;-65
2022/02/08 01:15:34;;;;;;;11.03;5.57;;;;;;;;;;5033429;28;20074;-65
2022/02/08 01:18:00;;;;;;;10.73;5.27;;;;;;;;;;5033407;28;20497;-65
2022/02/08 01:20:33;;;;;;;16.50;6.13;;;;;;;;;;5033049;28;20033;-66
2022/02/08 01:23:03;;;;;;;12.40;5.50;;;;;;;;;;5033456;28;20374;-66
2022/02/08 01:25:33;;;;;;;10.80;5.73;;;;;;;;;;5033408;28;20056;-64
2022/02/08 01:28:10;;;;;;;9.60;5.47;;;;;;;;;;5033185;28;20528;-64
2022/02/08 01:30:57;;;;;;;11.10;5.30;;;;;;;;;;5032965;28;20482;-66
2022/02/08 01:38:53;;;;;;;7.03;4.03;;;;;;;;;;5024583;28;20049;-66
2022/02/08 01:41:41;;;;;;;10.70;4.47;;;;;;;;;;5033196;28;20264;-65
2022/02/08 01:44:21;;;;;;;6.80;3.90;;;;;;;;;;5033327;28;20064;-65
2022/02/08 01:49:58;;;;;;;7.53;4.00;;;;;;;;;;5028115;28;20065;-65
2022/02/08 01:52:25;;;;;;;7.57;4.03;;;;;;;;;;5032908;28;20164;-65
2022/02/08 01:54:55;;;;;;;6.33;3.33;;;;;;;;;;5032722;28;20068;-65
2022/02/08 01:57:21;;;;;;;7.23;3.13;;;;;;;;;;5032889;28;20038;-64
2022/02/08 01:59:47;;;;;;;5.17;2.47;;;;;;;;;;5029614;28;20033;-67
2022/02/08 02:02:13;;;;;;;5.83;3.00;;;;;;;;;;5030397;28;20033;-64
2022/02/08 02:04:39;;;;;;;6.50;3.10;;;;;;;;;;5031208;28;20036;-64
2022/02/08 02:07:05;;;;;;;5.57;2.90;;;;;;;;;;5032452;28;20109;-65
2022/02/08 02:09:31;;;;;;;6.37;3.03;;;;;;;;;;5030971;28;20405;-65
2022/02/08 02:11:57;;;;;;;7.00;2.83;;;;;;;;;;5032585;28;20029;-64
2022/02/08 02:14:24;;;;;;;6.83;3.40;;;;;;;;;;5035927;28;20017;-65
2022/02/08 02:19:20;;;;;;;7.10;2.70;;;;;;;;;;5036805;28;20025;-64
2022/02/08 02:21:46;;;;;;;4.77;2.67;;;;;;;;;;5036149;28;20021;-64
2022/02/08 02:24:12;;;;;;;5.23;2.07;;;;;;;;;;5036746;28;20104;-64
2022/02/08 02:26:38;;;;;;;4.57;2.63;;;;;;;;;;5036638;28;20029;-64
2022/02/08 02:29:04;;;;;;;3.97;1.70;;;;;;;;;;5036163;28;20076;-65
2022/02/08 02:31:30;;;;;;;3.70;1.73;;;;;;;;;;5036533;28;20037;-65
2022/02/08 02:33:56;;;;;;;3.60;2.00;;;;;;;;;;5036150;28;20063;-65
2022/02/08 02:36:22;;;;;;;2.90;1.60;;;;;;;;;;5036251;28;20032;-65
2022/02/08 02:38:48;;;;;;;5.67;2.00;;;;;;;;;;5036154;28;20026;-65
2022/02/08 02:41:15;;;;;;;4.07;1.83;;;;;;;;;;5036413;28;20665;-64
2022/02/08 02:43:42;;;;;;;3.37;1.50;;;;;;;;;;5035782;28;20088;-65
2022/02/08 02:46:08;;;;;;;3.60;1.50;;;;;;;;;;5036410;28;20087;-65
2022/02/08 02:48:34;;;;;;;5.93;2.43;;;;;;;;;;5035967;28;20033;-64
2022/02/08 02:51:00;;;;;;;4.37;2.17;;;;;;;;;;5035797;28;20032;-65
2022/02/08 02:53:30;;;;;;;4.73;2.23;;;;;;;;;;5035679;28;20087;-64
2022/02/08 02:55:56;;;;;;;4.63;1.90;;;;;;;;;;5035809;28;20121;-64
2022/02/08 02:58:27;;;;;;;3.60;1.70;;;;;;;;;;5034426;28;20128;-64
2022/02/08 03:01:14;;;;;;;3.43;1.70;;;;;;;;;;5035656;28;20025;-63
2022/02/08 03:19:51;;;;;;;3.60;1.60;;;;;;;;;;5035323;28;20036;-65
2022/02/08 03:22:17;;;;;;;3.10;1.67;;;;;;;;;;5035487;28;20386;-64
2022/02/08 03:24:43;;;;;;;3.13;1.57;;;;;;;;;;5034242;28;20430;-64
2022/02/08 03:27:09;;;;;;;3.50;1.90;;;;;;;;;;5035554;28;20478;-65
2022/02/08 03:29:35;;;;;;;3.23;1.70;;;;;;;;;;5035182;28;20029;-66
2022/02/08 03:32:01;;;;;;;4.17;1.97;;;;;;;;;;5035424;28;20085;-64
2022/02/08 03:34:27;;;;;;;5.43;2.27;;;;;;;;;;5035254;28;20033;-64
2022/02/08 03:36:53;;;;;;;4.67;2.10;;;;;;;;;;5035092;28;20029;-64
2022/02/08 03:39:25;;;;;;;7.00;2.60;;;;;;;;;;5035236;28;20025;-64
2022/02/08 03:41:55;;;;;;;6.90;2.80;;;;;;;;;;5035337;28;20033;-65
2022/02/08 03:44:30;;;;;;;6.37;2.90;;;;;;;;;;5035133;28;20018;-64
2022/02/08 03:46:56;;;;;;;6.07;2.70;;;;;;;;;;5035291;28;20091;-65
2022/02/08 03:49:22;;;;;;;8.47;2.77;;;;;;;;;;5034805;28;20026;-64
2022/02/08 03:51:51;;;;;;;6.80;2.70;;;;;;;;;;5035002;28;20474;-65
2022/02/08 03:54:18;;;;;;;8.37;2.73;;;;;;;;;;5033664;28;20397;-65
2022/02/08 03:56:44;;;;;;;14.77;3.80;;;;;;;;;;5034677;28;20081;-64
2022/02/08 03:59:12;;;;;;;12.00;3.40;;;;;;;;;;5034618;28;20033;-64
2022/02/08 04:04:34;;;;;;;8.23;3.20;;;;;;;;;;5034457;28;20087;-65
2022/02/08 04:07:07;;;;;;;6.03;2.53;;;;;;;;;;5034538;28;20437;-64
2022/02/08 04:09:33;;;;;;;6.60;2.87;;;;;;;;;;5034124;28;20053;-65
2022/02/08 04:12:04;;;;;;;7.43;2.60;;;;;;;;;;5034625;28;20078;-65
2022/02/08 04:17:03;;;;;;;5.87;2.50;;;;;;;;;;5034611;28;20025;-64
2022/02/08 04:19:48;;;;;;;6.97;3.03;;;;;;;;;;5034315;28;20139;-66
2022/02/08 04:33:30;;;;;;;9.97;2.70;;;;;;;;;;5034085;28;20189;-66
2022/02/08 04:41:16;;;;;;;7.53;3.30;;;;;;;;;;5034268;28;20030;-65
2022/02/08 04:44:13;;;;;;;12.07;3.93;;;;;;;;;;5033933;28;20087;-65
2022/02/08 04:49:32;;;;;;;8.43;3.40;;;;;;;;;;5025272;28;20087;-65
2022/02/08 04:52:03;;;;;;;7.20;3.50;;;;;;;;;;5034219;28;20021;-65
2022/02/08 04:57:11;;;;;;;7.73;3.90;;;;;;;;;;5033902;28;20037;-65
2022/02/08 05:47:40;;;;;;;7.17;3.33;;;;;;;;;;5032318;28;20034;-64
2022/02/08 05:50:57;;;;;;;6.28;3.05;;;;;;;;;;5032901;28;20026;-64
2022/02/08 05:55:26;;;;;;;7.67;3.67;;;;;;;;;;5032659;28;20037;-64
2022/02/08 05:57:52;;;;;;;12.37;4.20;;;;;;;;;;5032575;28;20036;-65
2022/02/08 06:00:26;;;;;;;10.87;3.97;;;;;;;;;;5032574;28;20100;-65
2022/02/08 06:02:54;;;;;;;9.60;4.40;;;;;;;;;;5032884;28;20112;-65
2022/02/08 06:05:20;;;;;;;9.37;4.20;;;;;;;;;;5032789;28;20425;-64
2022/02/08 06:07:46;;;;;;;13.60;4.67;;;;;;;;;;5032738;28;20117;-64
2022/02/08 06:10:13;;;;;;;11.03;5.47;;;;;;;;;;5032254;28;20042;-64
2022/02/08 06:12:47;;;;;;;14.23;6.27;;;;;;;;;;5032735;28;20065;-64
2022/02/08 06:15:15;;;;;;;17.30;7.57;;;;;;;;;;5033001;28;20366;-65
2022/02/08 06:17:41;;;;;;;13.83;5.80;;;;;;;;;;5032556;28;20025;-65
2022/02/08 06:20:08;;;;;;;18.17;6.40;;;;;;;;;;5032522;28;20022;-64
2022/02/08 06:22:35;;;;;;;16.13;5.83;;;;;;;;;;5032836;28;20109;-64
2022/02/08 06:25:01;;;;;;;14.47;5.83;;;;;;;;;;5032376;28;20359;-64
2022/02/08 06:27:31;;;;;;;19.47;6.40;;;;;;;;;;5032564;28;20100;-65
2022/02/08 06:29:58;;;;;;;15.60;5.93;;;;;;;;;;5032511;28;20079;-64
2022/02/08 06:32:25;;;;;;;14.03;5.87;;;;;;;;;;5032306;28;20599;-64
2022/02/08 06:34:51;;;;;;;10.43;5.23;;;;;;;;;;5032261;28;20064;-64
2022/02/08 06:37:20;;;;;;;15.67;5.43;;;;;;;;;;5032574;28;20164;-64
2022/02/08 06:39:46;;;;;;;14.60;6.00;;;;;;;;;;5032063;28;20040;-65
2022/02/08 06:42:12;;;;;;;19.03;6.37;;;;;;;;;;5032796;28;20029;-64
2022/02/08 06:44:38;;;;;;;15.87;6.33;;;;;;;;;;5032481;28;20021;-64
2022/02/08 06:47:05;;;;;;;14.50;6.30;;;;;;;;;;5031353;28;20018;-67
2022/02/08 06:49:31;;;;;;;17.67;6.20;;;;;;;;;;5032008;28;20076;-64
2022/02/08 06:51:57;;;;;;;11.60;5.53;;;;;;;;;;5032394;28;20543;-65
2022/02/08 06:54:23;;;;;;;12.77;5.70;;;;;;;;;;5032295;28;20034;-65
2022/02/08 06:56:49;;;;;;;17.77;5.30;;;;;;;;;;5032222;28;20068;-65
2022/02/08 06:59:16;;;;;;;13.23;5.60;;;;;;;;;;5034070;28;20494;-65
2022/02/08 07:01:42;;;;;;;15.57;5.70;;;;;;;;;;5035943;28;20433;-65
2022/02/08 07:04:14;;;;;;;21.00;5.97;;;;;;;;;;5035781;28;20096;-66
2022/02/08 07:06:40;;;;;;;17.73;5.93;;;;;;;;;;5035662;28;20030;-65
2022/02/08 07:09:06;;;;;;;18.27;6.47;;;;;;;;;;5034317;28;20045;-65
2022/02/08 07:11:32;;;;;;;19.67;7.07;;;;;;;;;;5035635;28;20032;-64
2022/02/08 07:13:59;;;;;;;22.67;7.20;;;;;;;;;;5035689;28;20072;-65
2022/02/08 07:16:26;;;;;;;19.07;7.33;;;;;;;;;;5035397;28;20052;-65
2022/02/08 07:18:52;;;;;;;21.83;7.67;;;;;;;;;;5035341;28;20532;-68
2022/02/08 07:21:18;;;;;;;18.97;7.80;;;;;;;;;;5035663;28;20028;-65
2022/02/08 07:23:44;;;;;;;20.37;7.83;;;;;;;;;;5032786;28;20478;-67
2022/02/08 07:26:10;;;;;;;20.50;8.00;;;;;;;;;;5032701;28;20021;-69
2022/02/08 07:28:42;;;;;;;14.00;7.00;;;;;;;;;;5033068;28;20415;-67
2022/02/08 07:31:22;;;;;;;15.68;7.28;;;;;;;;;;5035050;28;20029;-67
2022/02/08 07:34:03;;;;;;;14.20;7.43;;;;;;;;;;5035307;28;20033;-68
2022/02/08 07:39:24;;;;;;;15.70;8.80;;;;;;;;;;5035048;28;20116;-67
2022/02/08 07:41:50;;;;;;;17.10;8.93;;;;;;;;;;5034889;28;20049;-68
2022/02/08 07:44:16;;;;;;;19.50;9.00;;;;;;;;;;5034867;28;20017;-67
2022/02/08 07:46:42;;;;;;;17.63;10.23;;;;;;;;;;5034441;28;20032;-67
2022/02/08 07:49:09;;;;;;;22.73;10.70;;;;;;;;;;5034732;28;20025;-70
2022/02/08 07:51:40;;;;;;;19.67;10.03;;;;;;;;;;5033264;28;20032;-69
2022/02/08 07:54:06;;;;;;;18.90;9.07;;;;;;;;;;5033975;28;20029;-70
2022/02/08 07:56:32;;;;;;;17.47;8.10;;;;;;;;;;5034719;28;20347;-70
2022/02/08 07:59:00;;;;;;;19.10;9.00;;;;;;;;;;5034529;28;20029;-69
2022/02/08 08:01:26;;;;;;;15.10;7.90;;;;;;;;;;5034352;28;20105;-71
2022/02/08 08:03:52;;;;;;;18.43;7.90;;;;;;;;;;5034423;28;20029;-68
2022/02/08 08:06:19;;;;;;;19.67;7.17;;;;;;;;;;5034411;28;20494;-71
2022/02/08 08:08:46;;;;;;;14.93;7.20;;;;;;;;;;5033681;28;20041;-70
2022/02/08 08:11:16;;;;;;;15.43;7.27;;;;;;;;;;5033647;28;20445;-71
2022/02/08 08:13:48;;;;;;;14.80;7.47;;;;;;;;;;5034219;28;20088;-71
2022/02/08 08:16:20;;;;;;;;;;;;;;;;;;5034220;28;20064;-66
2022/02/08 08:21:21;;;;;;;12.33;6.60;;;;;;;;;;5033977;28;20029;-68
2022/02/08 08:23:47;;;;;;;16.33;6.23;;;;;;;;;;5033672;28;20030;-68
2022/02/08 08:26:13;;;;;;;11.50;5.73;;;;;;;;;;5033922;28;20026;-69
2022/02/08 08:28:39;;;;;;;11.17;5.50;;;;;;;;;;5034059;28;20026;-67
2022/02/08 08:31:06;;;;;;;16.57;6.43;;;;;;;;;;5033764;28;20030;-71
2022/02/08 08:33:32;;;;;;;11.53;5.80;;;;;;;;;;5033792;28;20045;-72
2022/02/08 08:35:58;;;;;;;10.40;5.60;;;;;;;;;;5033601;28;20032;-71
2022/02/08 08:38:26;;;;;;;10.53;6.27;;;;;;;;;;5033314;28;20021;-69
2022/02/08 08:54:07;;;;;;;8.50;4.33;;;;;;;;;;5032500;28;20033;-68
2022/02/08 08:56:34;;;;;;;8.17;4.40;;;;;;;;;;5033011;28;20478;-67
2022/02/08 08:59:00;;;;;;;9.40;3.43;;;;;;;;;;5031537;28;20030;-71
2022/02/08 09:01:26;;;;;;;7.73;4.23;;;;;;;;;;5030801;28;20021;-70
2022/02/08 09:03:52;;;;;;;4.53;2.80;;;;;;;;;;5031236;28;20451;-71
2022/02/08 09:06:18;;;;;;;6.00;2.93;;;;;;;;;;5033619;28;20024;-72
2022/02/08 09:08:45;;;;;;;4.67;2.80;;;;;;;;;;5032947;28;20474;-68
2022/02/08 09:11:22;;;;;;;5.37;2.90;;;;;;;;;;5031802;28;20443;-71
2022/02/08 09:22:00;;;;;;;8.13;3.10;;;;;;;;;;5033298;28;20026;-70
2022/02/08 09:29:49;;;;;;;4.03;1.97;;;;;;;;;;5032220;28;20029;-71
2022/02/08 09:32:18;;;;;;;5.83;2.07;;;;;;;;;;5032963;28;20025;-72
2022/02/08 09:34:46;;;;;;;3.60;1.73;;;;;;;;;;5032224;28;20489;-72
2022/02/08 09:37:13;;;;;;;5.27;2.43;;;;;;;;;;5031325;28;20034;-72
2022/02/08 09:39:39;;;;;;;5.87;2.40;;;;;;;;;;5032106;28;20108;-72
2022/02/08 09:42:06;;;;;;;5.83;2.90;;;;;;;;;;5033708;28;20155;-72
2022/02/08 09:44:33;;;;;;;6.77;2.90;;;;;;;;;;5031140;28;20029;-71
2022/02/08 09:47:01;;;;;;;7.43;3.70;;;;;;;;;;5036750;28;20044;-72
2022/02/08 09:49:28;;;;;;;4.50;2.53;;;;;;;;;;5046719;28;20052;-71
2022/02/08 09:51:56;;;;;;;5.80;3.07;;;;;;;;;;5052577;28;20500;-72
2022/02/08 09:54:22;;;;;;;6.73;3.17;;;;;;;;;;5052411;28;20040;-72
2022/02/08 09:56:49;;;;;;;10.57;3.50;;;;;;;;;;5052078;28;20031;-72
2022/02/08 09:59:15;;;;;;;9.33;3.57;;;;;;;;;;5051782;28;20523;-72
2022/02/08 10:01:51;;;;;;;11.73;3.70;;;;;;;;;;5052250;28;20096;-68
2022/02/08 10:04:18;;;;;;;7.17;4.27;;;;;;;;;;5052017;28;20066;-71
2022/02/08 10:06:44;;;;;;;11.13;4.77;;;;;;;;;;5052322;28;20021;-71
2022/02/08 10:09:10;;;;;;;8.43;4.80;;;;;;;;;;5052277;28;20038;-71
2022/02/08 10:11:46;;;;;;;8.33;4.97;;;;;;;;;;5052083;28;20080;-69
2022/02/08 10:20:05;;;;;;;;;;;;;;;;;;5052419;28;20063;-71
2022/02/08 10:22:28;;;;;;;5.70;2.60;;;;;;;;;;5051175;28;19928;-71
2022/02/08 10:24:55;;;;;;;6.57;2.03;;;;;;;;;;5052797;28;20032;-67
2022/02/08 10:28:01;;;;;;;3.40;1.80;;;;;;;;;;5051710;28;20508;-65
2022/02/08 10:38:41;;;;;;;4.77;1.60;;;;;;;;;;5056432;28;20040;-65
2022/02/08 10:41:24;;;;;;;3.77;1.60;;;;;;;;;;5056271;28;20029;-66
2022/02/08 10:43:57;;;;;;;3.58;1.92;;;;;;;;;;5055987;28;20066;-67
2022/02/08 10:46:23;;;;;;;6.67;2.37;;;;;;;;;;5055724;28;20033;-66
2022/02/08 10:49:08;;;;;;;4.47;2.30;;;;;;;;;;5056360;28;20025;-68
2022/02/08 10:51:56;;;;;;;5.70;2.60;;;;;;;;;;5056291;28;20028;-67
2022/02/08 10:54:33;;;;;;;6.13;2.00;;;;;;;;;;5055799;28;20060;-66
2022/02/08 10:57:06;;;;;;;5.93;1.90;;;;;;;;;;5056141;28;20489;-67
2022/02/08 10:59:37;;;;;;;5.43;2.25;;;;;;;;;;5055984;28;20108;-66
2022/02/08 11:02:10;;;;;;;6.37;2.17;;;;;;;;;;5056407;28;20373;-65
2022/02/08 11:04:51;;;;;;;;;;;;;;;;;;5056580;28;20028;-67
2022/02/08 11:07:43;;;;;;;5.50;2.70;;;;;;;;;;5056130;28;20277;-67
2022/02/08 11:18:16;;;;;;;2.37;1.50;;;;;;;;;;5055558;28;20065;-66
2022/02/08 11:20:58;;;;;;;2.70;1.30;;;;;;;;;;5055796;28;20059;-67
2022/02/08 11:23:47;;;;;;;4.30;1.27;;;;;;;;;;5055474;28;20021;-67
2022/02/08 11:26:13;;;;;;;2.07;1.20;;;;;;;;;;5055410;28;20389;-66
2022/02/08 11:28:47;;;;;;;3.13;1.27;;;;;;;;;;5055554;28;20062;-67
2022/02/08 11:31:36;;;;;;;2.77;1.40;;;;;;;;;;5055109;28;20100;-69
2022/02/08 11:53:43;;;;;;;2.13;1.33;;;;;;;;;;5054885;28;20418;-68
2022/02/08 11:58:59;;;;;;;2.88;1.17;;;;;;;;;;5054884;28;19908;-66
2022/02/08 12:04:31;;;;;;;1.88;1.05;;;;;;;;;;5054885;28;20382;-68
2022/02/08 12:35:18;;;;;;;9.52;1.30;;;;;;;;;;5053936;28;20098;-65
2022/02/08 12:56:15;;;;;;;6.97;1.50;;;;;;;;;;5052608;28;20024;-66
2022/02/08 13:01:41;;;;;;;7.25;1.42;;;;;;;;;;5052906;28;20017;-66
2022/02/08 13:04:45;;;;;;;3.22;1.40;;;;;;;;;;5053456;28;20040;-66
2022/02/08 13:17:36;;;;;;;1.65;1.20;;;;;;;;;;5053252;28;20362;-66
2022/02/08 14:01:56;;;;;;;2.38;1.27;;;;;;;;;;5052967;28;20036;-66
2022/02/08 14:14:49;;;;;;;2.55;1.20;;;;;;;;;;5056625;28;20052;-66
2022/02/08 14:23:05;;;;;;;16.67;7.40;;;;;;;;;;5056669;28;20075;-73
2022/02/08 14:25:44;;;;;;;21.85;15.10;;;;;;;;;;5056534;28;20031;-77
2022/02/08 15:08:52;;;;;;;2.80;1.60;;;;;;;;;;5054882;28;20045;-68
2022/02/08 15:11:18;;;;;;;2.80;1.38;;;;;;;;;;5055567;28;20040;-69
2022/02/08 15:13:48;;;;;;;7.43;1.25;;;;;;;;;;5055092;28;20111;-66
2022/02/08 15:18:40;;;;;;;2.25;1.40;;;;;;;;;;5055769;28;20040;-68
2022/02/08 15:21:12;;;;;;;7.30;3.13;;;;;;;;;;5055076;28;20512;-70
2022/02/08 15:23:38;;;;;;;8.65;4.28;;;;;;;;;;5055382;28;20071;-66
2022/02/08 15:26:05;;;;;;;9.85;6.13;;;;;;;;;;5055506;28;20063;-66
2022/02/08 15:28:31;;;;;;;7.65;3.33;;;;;;;;;;5055432;28;20036;-67
2022/02/08 15:30:58;;;;;;;4.57;2.80;;;;;;;;;;5055639;28;20484;-67
2022/02/08 15:33:26;;;;;;;6.22;3.00;;;;;;;;;;5055216;28;20033;-69
2022/02/08 15:35:53;;;;;;;4.80;2.85;;;;;;;;;;5055182;28;20043;-69
2022/02/08 15:38:21;;;;;;;8.85;4.50;;;;;;;;;;5055418;28;20134;-66
2022/02/08 15:40:47;;;;;;;4.63;3.08;;;;;;;;;;5055292;28;20025;-66
2022/02/08 15:43:14;;;;;;;7.00;2.90;;;;;;;;;;5055216;28;20055;-66
2022/02/08 15:45:49;;;;;;;7.82;2.65;;;;;;;;;;5053918;28;20021;-72
2022/02/08 15:48:20;;;;;;;7.45;3.63;;;;;;;;;;5054469;28;20381;-67
2022/02/08 15:50:54;;;;;;;4.60;2.67;;;;;;;;;;5054932;28;20082;-68
2022/02/08 16:01:38;;;;;;;6.35;2.10;;;;;;;;;;5054809;28;20535;-68
2022/02/08 16:56:23;;;;;;;11.20;3.60;;;;;;;;;;5053661;28;20083;-68
2022/02/08 17:01:19;;;;;;;10.90;5.33;;;;;;;;;;5051912;28;20034;-69
2022/02/08 17:03:51;;;;;;;13.90;5.97;;;;;;;;;;5053372;28;20032;-68
2022/02/08 17:06:19;;;;;;;15.20;7.77;;;;;;;;;;5053057;28;20497;-68
2022/02/08 17:08:47;;;;;;;11.97;6.90;;;;;;;;;;5051985;28;20428;-67
2022/02/08 17:11:21;;;;;;;15.37;9.17;;;;;;;;;;5053090;28;20069;-68
2022/02/08 17:14:13;;;;;;;15.60;8.83;;;;;;;;;;5051774;28;20091;-69
2022/02/08 17:16:51;;;;;;;14.20;9.20;;;;;;;;;;5051622;28;20033;-69
2022/02/08 17:46:36;;;;;;;29.47;17.07;;;;;;;;;;5050471;28;20033;-69
2022/02/08 17:49:03;;;;;;;20.40;12.53;;;;;;;;;;5051195;28;20098;-68
2022/02/08 17:51:29;;;;;;;15.17;9.17;;;;;;;;;;5050389;28;20516;-68
2022/02/08 17:53:55;;;;;;;15.43;9.67;;;;;;;;;;5050558;28;20044;-68
2022/02/08 17:56:22;;;;;;;17.57;9.80;;;;;;;;;;5051418;28;20370;-71
2022/02/08 17:58:49;;;;;;;18.70;9.60;;;;;;;;;;5052190;28;20022;-71
2022/02/08 18:01:15;;;;;;;22.30;10.07;;;;;;;;;;5052355;28;20477;-68
2022/02/08 18:03:41;;;;;;;20.23;9.83;;;;;;;;;;5052499;28;20398;-69
2022/02/08 18:06:07;;;;;;;19.60;8.97;;;;;;;;;;5051308;28;20465;-68
2022/02/08 18:08:35;;;;;;;20.07;10.10;;;;;;;;;;5051934;28;20029;-69
2022/02/08 18:11:01;;;;;;;21.47;9.63;;;;;;;;;;5051787;28;20108;-69
2022/02/08 18:13:30;;;;;;;25.33;8.77;;;;;;;;;;5049965;28;20384;-69
2022/02/08 18:15:58;;;;;;;22.83;10.10;;;;;;;;;;5048781;28;20029;-69
2022/02/08 18:18:30;;;;;;;19.10;9.17;;;;;;;;;;5050841;28;20021;-72
2022/02/08 18:21:03;;;;;;;16.85;8.43;;;;;;;;;;5048694;28;20029;-70
2022/02/08 18:27:20;;;;;;;42.27;20.10;;;;;;;;;;5051791;28;20025;-68
2022/02/08 19:12:16;;;;;;;44.37;23.23;;;;;;;;;;5054709;28;20330;-68
2022/02/08 19:17:43;;;;;;;49.73;24.50;;;;;;;;;;5055563;28;20025;-68
2022/02/08 19:20:21;;;;;;;39.33;23.27;;;;;;;;;;5055284;28;20454;-68
2022/02/08 19:22:48;;;;;;;42.07;22.13;;;;;;;;;;5055039;28;20036;-69
2022/02/08 19:25:14;;;;;;;38.57;21.80;;;;;;;;;;5054766;28;20053;-68
2022/02/08 19:27:42;;;;;;;40.97;22.60;;;;;;;;;;5055221;28;20110;-68
2022/02/08 19:30:09;;;;;;;38.97;21.40;;;;;;;;;;5053725;28;20385;-69
2022/02/08 19:32:35;;;;;;;46.87;22.47;;;;;;;;;;5047390;28;20028;-69
2022/02/08 19:35:03;;;;;;;35.20;19.27;;;;;;;;;;5041456;28;20084;-69
2022/02/08 19:37:30;;;;;;;39.03;22.43;;;;;;;;;;5039922;28;20049;-69
2022/02/08 19:39:56;;;;;;;32.13;19.33;;;;;;;;;;5042739;28;20029;-68
2022/02/08 19:42:22;;;;;;;34.50;17.77;;;;;;;;;;5044292;28;20488;-68
2022/02/08 19:44:55;;;;;;;30.20;18.03;;;;;;;;;;5042916;28;20537;-68
2022/02/08 19:47:22;;;;;;;33.80;16.80;;;;;;;;;;5034694;28;20029;-68
2022/02/08 19:49:48;;;;;;;33.80;18.27;;;;;;;;;;5034897;28;20056;-67
2022/02/08 19:52:14;;;;;;;35.07;18.20;;;;;;;;;;5034967;28;20033;-67
2022/02/08 19:54:58;;;;;;;29.43;16.30;;;;;;;;;;5034537;28;20132;-67
2022/02/08 19:57:26;;;;;;;43.57;23.20;;;;;;;;;;5034390;28;20029;-67
2022/02/08 19:59:52;;;;;;;33.23;18.90;;;;;;;;;;5034279;28;20026;-68
2022/02/08 20:02:22;;;;;;;34.30;19.30;;;;;;;;;;5034533;28;20093;-68
2022/02/08 20:04:49;;;;;;;29.03;18.97;;;;;;;;;;5034816;28;20025;-67
2022/02/08 20:07:15;;;;;;;31.60;18.57;;;;;;;;;;5033444;28;20041;-67
2022/02/08 20:09:42;;;;;;;33.00;19.37;;;;;;;;;;5032551;28;20124;-67
2022/02/08 20:12:08;;;;;;;36.23;20.27;;;;;;;;;;5034311;28;20025;-67
2022/02/08 20:14:34;;;;;;;42.37;22.23;;;;;;;;;;5034318;28;20071;-67
2022/02/08 20:17:01;;;;;;;47.67;22.80;;;;;;;;;;5034032;28;20360;-67
2022/02/08 20:19:28;;;;;;;45.37;24.93;;;;;;;;;;5033948;28;20056;-68
2022/02/08 20:22:01;;;;;;;49.13;24.10;;;;;;;;;;5034061;28;20026;-67
2022/02/08 20:24:28;;;;;;;61.57;26.03;;;;;;;;;;5034044;28;20025;-68
2022/02/08 20:29:48;;;;;;;53.73;27.17;;;;;;;;;;5025216;28;20041;-67
2022/02/08 20:32:14;;;;;;;49.90;26.80;;;;;;;;;;5033921;28;20264;-67
2022/02/08 20:34:40;;;;;;;45.20;25.40;;;;;;;;;;5034101;28;20477;-66
2022/02/08 20:37:06;;;;;;;50.23;25.40;;;;;;;;;;5034113;28;20386;-67
2022/02/08 20:39:32;;;;;;;44.03;24.23;;;;;;;;;;5033703;28;20033;-68
2022/02/08 20:42:02;;;;;;;42.00;23.37;;;;;;;;;;5034176;28;20076;-67
2022/02/08 20:44:29;;;;;;;46.20;27.27;;;;;;;;;;5033791;28;20025;-67
2022/02/08 20:47:04;;;;;;;41.73;25.23;;;;;;;;;;5033245;28;20104;-67
2022/02/08 20:49:30;;;;;;;42.17;24.07;;;;;;;;;;5033785;28;20055;-67
2022/02/08 20:51:56;;;;;;;37.90;22.87;;;;;;;;;;5034466;28;20393;-70
2022/02/08 20:54:26;;;;;;;36.87;22.77;;;;;;;;;;5043130;28;20029;-68
2022/02/08 20:57:02;;;;;;;34.90;20.50;;;;;;;;;;5041771;28;20025;-68
2022/02/08 20:59:28;;;;;;;40.10;22.97;;;;;;;;;;5042091;28;20021;-67
2022/02/08 21:01:54;;;;;;;42.53;23.97;;;;;;;;;;5043815;28;20086;-68
2022/02/08 21:06:50;;;;;;;41.37;23.67;;;;;;;;;;5040924;28;20051;-68
2022/02/08 21:09:17;;;;;;;41.40;22.97;;;;;;;;;;5041261;28;20051;-68
2022/02/08 21:11:49;;;;;;;42.40;22.93;;;;;;;;;;5041195;28;20432;-68
2022/02/08 21:14:15;;;;;;;37.97;22.63;;;;;;;;;;5043787;28;20033;-68
2022/02/08 21:16:46;;;;;;;36.30;21.07;;;;;;;;;;5042486;28;20021;-68
2022/02/08 21:19:16;;;;;;;36.93;21.73;;;;;;;;;;5043504;28;20025;-68
2022/02/08 21:21:43;;;;;;;35.80;20.67;;;;;;;;;;5042282;28;20030;-68
2022/02/08 21:24:09;;;;;;;38.13;21.50;;;;;;;;;;5040180;28;20029;-69
2022/02/08 21:26:40;;;;;;;36.70;20.20;;;;;;;;;;5041808;28;20382;-69
2022/02/08 21:52:56;;;;;;;31.67;13.67;;;;;;;;;;5042982;28;20025;-68
2022/02/08 21:55:22;;;;;;;28.27;14.30;;;;;;;;;;5042181;28;20033;-68
2022/02/08 21:57:53;;;;;;;26.27;13.97;;;;;;;;;;5040010;28;20060;-67
2022/02/08 22:00:22;;;;;;;32.83;17.47;;;;;;;;;;5030796;28;20435;-67
2022/02/08 22:02:48;;;;;;;49.63;26.57;;;;;;;;;;5030362;28;20040;-68
2022/02/08 22:05:14;;;;;;;38.47;22.87;;;;;;;;;;5032440;28;20051;-67
2022/02/08 22:07:40;;;;;;;39.43;20.30;;;;;;;;;;5032595;28;20033;-66
2022/02/08 22:21:24;;;;;;;53.28;29.45;;;;;;;;;;5032475;28;20026;-67
2022/02/08 22:24:10;;;;;;;59.47;30.83;;;;;;;;;;5032038;28;20039;-67
2022/02/08 22:29:23;;;;;;;277.80;112.67;;;;;;;;;;5032594;28;20446;-66
2022/02/08 22:32:06;;;;;;;70.20;34.53;;;;;;;;;;5036363;28;20541;-68
2022/02/08 22:34:46;;;;;;;42.42;23.88;;;;;;;;;;5035754;28;20505;-70
2022/02/08 22:42:15;;;;;;;38.23;21.07;;;;;;;;;;5033082;28;20042;-66
2022/02/08 22:44:47;;;;;;;36.87;20.67;;;;;;;;;;5032706;28;20385;-67
2022/02/08 22:47:14;;;;;;;37.05;20.75;;;;;;;;;;5035717;28;20024;-67
2022/02/08 22:49:40;;;;;;;35.43;20.60;;;;;;;;;;5035988;28;20036;-70
2022/02/08 22:52:07;;;;;;;34.70;19.00;;;;;;;;;;5036204;28;20021;-69
2022/02/08 22:54:34;;;;;;;30.37;18.90;;;;;;;;;;5036143;28;20117;-68
2022/02/08 22:57:00;;;;;;;31.83;18.60;;;;;;;;;;5035861;28;20120;-67
2022/02/08 22:59:26;;;;;;;31.73;18.13;;;;;;;;;;5035451;28;20454;-68
2022/02/08 23:01:53;;;;;;;32.10;18.67;;;;;;;;;;5035394;28;20466;-67
2022/02/08 23:04:22;;;;;;;38.83;21.60;;;;;;;;;;5035954;28;20075;-69
2022/02/08 23:06:51;;;;;;;30.97;18.03;;;;;;;;;;5035977;28;20021;-67
2022/02/08 23:09:23;;;;;;;32.60;18.93;;;;;;;;;;5035257;28;20485;-67
2022/02/08 23:14:22;;;;;;;30.70;17.73;;;;;;;;;;5035530;28;20474;-66
2022/02/08 23:38:48;;;;;;;30.97;16.33;;;;;;;;;;5035345;28;20068;-68
2022/02/08 23:41:14;;;;;;;29.70;17.37;;;;;;;;;;5035337;28;20393;-67
2022/02/08 23:43:42;;;;;;;29.93;16.27;;;;;;;;;;5035027;28;20017;-68
2022/02/08 23:46:09;;;;;;;27.77;15.90;;;;;;;;;;5034746;28;20028;-67
2022/02/08 23:48:47;;;;;;;30.10;16.30;;;;;;;;;;5035244;28;20425;-67
2022/02/08 23:51:19;;;;;;;37.77;17.23;;;;;;;;;;5035038;28;20041;-66
2022/02/08 23:53:57;;;;;;;35.07;18.83;;;;;;;;;;5034854;28;20493;-67
2022/02/08 23:56:41;;;;;;;32.40;18.67;;;;;;;;;;5034959;28;20072;-67
2022/02/08 23:59:10;;;;;;;57.67;19.83;;;;;;;;;;5034830;28;20425;-67
